createdAt,value
2017-09-01T12:09:55.536Z,12.23
2017-09-01T12:12:21.721Z,8.90
2017-09-01T12:14:47.896Z,9.73
2017-09-01T12:17:14.086Z,16.20
2017-09-01T12:19:40.298Z,11.97
2017-09-01T12:22:06.463Z,8.70
2017-09-01T12:24:32.643Z,9.90
2017-09-01T12:26:58.840Z,8.47
2017-09-01T12:29:25.027Z,11.87
2017-09-01T12:31:51.246Z,9.23
2017-09-01T12:34:17.458Z,9.10
2017-09-01T12:36:43.666Z,9.00
2017-09-01T12:39:09.841Z,8.30
2017-09-01T12:41:36.023Z,8.77
2017-09-01T12:44:02.210Z,8.23
2017-09-01T12:46:28.411Z,8.33
2017-09-01T12:48:54.636Z,9.17
2017-09-01T12:51:20.825Z,13.63
2017-09-01T12:53:46.994Z,9.57
2017-09-01T12:56:13.177Z,11.13
2017-09-01T12:58:39.493Z,7.50
2017-09-01T13:01:05.679Z,7.50
2017-09-01T13:03:31.892Z,7.90
2017-09-01T13:05:58.076Z,9.77
2017-09-01T13:08:24.263Z,10.40
2017-09-01T13:10:50.449Z,8.60
2017-09-01T13:13:16.650Z,10.03
2017-09-01T13:15:42.854Z,7.63
2017-09-01T13:18:09.031Z,9.57
2017-09-01T13:20:35.217Z,9.13
2017-09-01T13:23:01.415Z,10.87
2017-09-01T13:25:27.597Z,8.10
2017-09-01T13:27:53.853Z,10.37
2017-09-01T13:30:20.051Z,9.10
2017-09-01T13:32:46.223Z,10.07
2017-09-01T13:35:12.403Z,8.63
2017-09-01T13:37:38.583Z,9.93
2017-09-01T13:40:04.778Z,11.20
2017-09-01T13:42:30.975Z,9.20
2017-09-01T13:44:57.160Z,7.43
2017-09-01T13:47:23.338Z,12.13
2017-09-01T13:49:49.530Z,9.20
2017-09-01T13:52:15.722Z,7.97
2017-09-01T13:54:41.895Z,8.97
2017-09-01T13:57:08.082Z,9.30
2017-09-01T13:59:34.413Z,10.37
2017-09-01T14:02:00.618Z,8.33
2017-09-01T14:04:26.795Z,9.60
2017-09-01T14:06:52.968Z,7.20
2017-09-01T14:09:19.181Z,6.60
2017-09-01T14:11:45.353Z,5.80
2017-09-01T14:14:11.531Z,6.23
2017-09-01T14:16:37.727Z,4.53
2017-09-01T14:19:03.928Z,6.80
2017-09-01T14:21:30.126Z,8.03
2017-09-01T14:23:56.307Z,5.63
2017-09-01T14:26:22.518Z,4.63
2017-09-01T14:28:48.706Z,5.53
2017-09-01T14:31:14.885Z,7.97
2017-09-01T14:33:41.072Z,7.70
2017-09-01T14:36:07.248Z,7.00
2017-09-01T14:38:33.440Z,7.80
2017-09-01T14:40:59.643Z,6.33
2017-09-01T14:43:25.867Z,7.03
2017-09-01T14:45:52.063Z,7.10
2017-09-01T14:48:18.254Z,5.83
2017-09-01T14:50:44.433Z,6.10
2017-09-01T14:53:10.613Z,5.33
2017-09-01T14:55:36.809Z,6.23
2017-09-01T14:58:02.997Z,5.03
2017-09-01T15:00:29.195Z,5.47
2017-09-01T15:02:55.397Z,7.67
2017-09-01T15:05:21.608Z,6.03
2017-09-01T15:07:47.825Z,12.53
2017-09-01T15:10:14.161Z,7.63
2017-09-01T15:12:40.399Z,7.97
2017-09-01T15:15:06.610Z,6.63
2017-09-01T15:17:32.772Z,7.07
2017-09-01T15:19:59.067Z,9.33
2017-09-01T15:22:25.259Z,15.07
2017-09-01T15:24:51.463Z,8.43
2017-09-01T15:27:17.672Z,10.30
2017-09-01T15:29:43.846Z,8.10
2017-09-01T15:32:10.039Z,9.87
2017-09-01T15:34:36.246Z,10.87
2017-09-01T15:37:02.422Z,8.30
2017-09-01T15:39:28.616Z,9.07
2017-09-01T15:41:54.819Z,11.23
2017-09-01T15:44:20.993Z,10.93
2017-09-01T15:46:48.299Z,12.33
2017-09-01T15:49:14.511Z,9.47
2017-09-01T15:51:40.702Z,9.20
2017-09-01T15:54:06.902Z,10.50
2017-09-01T15:56:33.106Z,10.83
2017-09-01T15:58:59.424Z,9.40
2017-09-01T16:01:25.606Z,10.40
2017-09-01T16:03:51.785Z,12.27
2017-09-01T16:06:17.972Z,10.33
2017-09-01T16:08:44.181Z,11.70
2017-09-01T16:11:10.395Z,14.50
2017-09-01T16:13:36.561Z,9.40
2017-09-01T16:16:02.752Z,9.60
2017-09-01T16:18:28.938Z,9.63
2017-09-01T16:20:55.134Z,11.07
2017-09-01T16:23:21.418Z,10.67
2017-09-01T16:25:47.597Z,9.70
2017-09-01T16:28:13.810Z,11.80
2017-09-01T16:30:40.027Z,10.70
2017-09-01T16:33:06.234Z,10.70
2017-09-01T16:35:32.445Z,12.97
2017-09-01T16:37:58.636Z,11.30
2017-09-01T16:40:24.846Z,10.37
2017-09-01T16:42:51.046Z,13.50
2017-09-01T16:45:17.246Z,14.60
2017-09-01T16:47:43.419Z,13.90
2017-09-01T16:50:09.606Z,11.20
2017-09-01T16:52:35.790Z,10.97
2017-09-01T16:55:02.000Z,10.97
2017-09-01T16:57:28.250Z,11.73
2017-09-01T16:59:54.455Z,10.93
2017-09-01T17:04:49.475Z,11.30
2017-09-01T17:07:17.837Z,13.90
2017-09-01T17:09:46.191Z,12.77
2017-09-01T17:12:14.555Z,12.20
2017-09-01T17:14:43.894Z,11.57
2017-09-01T17:17:12.239Z,12.30
2017-09-01T17:19:41.404Z,15.27
2017-09-01T17:22:09.944Z,14.10
2017-09-01T17:24:38.303Z,13.33
2017-09-01T17:27:06.664Z,12.20
2017-09-01T17:29:35.810Z,10.40
2017-09-01T17:32:04.370Z,11.03
2017-09-01T17:34:32.754Z,12.60
2017-09-01T17:37:01.126Z,18.07
2017-09-01T17:39:29.508Z,28.60
2017-09-01T17:41:57.885Z,30.90
2017-09-01T17:44:26.268Z,39.23
2017-09-01T17:46:54.627Z,44.63
2017-09-01T17:49:22.991Z,46.20
2017-09-01T17:51:51.355Z,53.17
2017-09-01T17:54:19.725Z,54.60
2017-09-01T17:56:48.083Z,86.80
2017-09-01T17:59:16.466Z,77.50
2017-09-01T18:01:44.821Z,78.73
2017-09-01T18:04:13.195Z,99.20
2017-09-01T18:06:41.571Z,95.23
2017-09-01T18:09:09.941Z,77.40
2017-09-01T18:11:38.380Z,59.17
2017-09-01T18:14:06.763Z,51.73
2017-09-01T18:16:35.130Z,24.10
2017-09-01T18:19:03.495Z,45.53
2017-09-01T18:21:31.885Z,29.63
2017-09-01T18:24:00.272Z,44.03
2017-09-01T18:26:28.657Z,43.13
2017-09-01T18:28:57.047Z,38.60
2017-09-01T18:31:25.426Z,47.33
2017-09-01T18:33:53.935Z,47.07
2017-09-01T18:36:22.286Z,32.17
2017-09-01T18:38:50.667Z,32.90
2017-09-01T18:41:19.059Z,46.60
2017-09-01T18:43:47.424Z,40.57
2017-09-01T18:46:15.807Z,33.27
2017-09-01T18:48:44.179Z,40.77
2017-09-01T18:51:12.596Z,45.50
2017-09-01T18:53:41.710Z,52.40
2017-09-01T18:56:10.074Z,54.83
2017-09-01T18:58:38.724Z,57.07
2017-09-01T19:01:07.112Z,46.93
2017-09-01T19:03:35.487Z,44.47
2017-09-01T19:06:03.859Z,42.37
2017-09-01T19:08:32.973Z,31.60
2017-09-01T19:11:01.552Z,32.73
2017-09-01T19:13:29.581Z,38.50
2017-09-01T19:15:57.995Z,43.60
2017-09-01T19:18:26.372Z,40.13
2017-09-01T19:20:54.817Z,42.27
2017-09-01T19:23:23.207Z,43.40
2017-09-01T19:25:51.581Z,45.50
2017-09-01T19:28:19.978Z,44.77
2017-09-01T19:30:48.571Z,45.23
2017-09-01T19:33:16.979Z,39.90
2017-09-01T19:35:45.412Z,34.63
2017-09-01T19:38:13.834Z,43.37
2017-09-01T19:40:42.203Z,34.67
2017-09-01T19:43:10.602Z,39.83
2017-09-01T19:45:39.119Z,35.47
2017-09-01T19:48:07.499Z,33.43
2017-09-01T19:50:35.864Z,40.63
2017-09-01T19:53:04.225Z,39.20
2017-09-01T19:55:33.173Z,33.50
2017-09-01T19:58:01.550Z,33.80
2017-09-01T20:00:29.992Z,35.67
2017-09-01T20:02:58.525Z,33.67
2017-09-01T20:05:26.888Z,30.90
2017-09-01T20:07:55.281Z,34.87
2017-09-01T20:10:23.646Z,39.00
2017-09-01T20:12:52.078Z,35.07
2017-09-01T20:15:20.553Z,29.50
2017-09-01T20:17:49.198Z,34.10
2017-09-01T20:20:17.567Z,35.23
2017-09-01T20:22:45.945Z,32.37
2017-09-01T20:25:14.309Z,29.10
2017-09-01T20:27:42.676Z,29.40
2017-09-01T20:30:11.083Z,29.43
2017-09-01T20:32:39.496Z,29.00
2017-09-01T20:35:08.083Z,30.90
2017-09-01T20:37:36.553Z,28.17
2017-09-01T20:40:04.932Z,31.27
2017-09-01T20:42:33.314Z,27.60
2017-09-01T20:45:01.688Z,27.87
2017-09-01T20:47:30.364Z,26.63
2017-09-01T20:49:58.720Z,27.77
2017-09-01T20:52:27.114Z,27.13
2017-09-01T20:54:55.493Z,28.37
2017-09-01T20:57:23.846Z,26.37
2017-09-01T20:59:54.326Z,28.07
2017-09-01T21:02:22.689Z,26.50
2017-09-01T21:04:51.055Z,27.13
2017-09-01T21:07:19.431Z,26.37
2017-09-01T21:09:47.810Z,25.57
2017-09-01T21:12:16.379Z,25.07
2017-09-01T21:14:45.526Z,25.27
2017-09-01T21:17:13.914Z,25.87
2017-09-01T21:19:42.327Z,24.20
2017-09-01T21:22:10.692Z,30.20
2017-09-01T21:24:39.073Z,25.10
2017-09-01T21:27:08.720Z,23.60
2017-09-01T21:29:37.287Z,24.50
2017-09-01T21:32:05.948Z,23.77
2017-09-01T21:34:34.312Z,23.77
2017-09-01T21:37:02.677Z,22.53
2017-09-01T21:39:31.383Z,23.27
2017-09-01T21:41:59.791Z,24.20
2017-09-01T21:44:28.146Z,25.37
2017-09-01T21:46:56.761Z,25.93
2017-09-01T21:49:25.771Z,27.60
2017-09-01T21:51:54.163Z,27.20
2017-09-01T21:54:22.737Z,27.07
2017-09-01T21:56:52.589Z,25.80
2017-09-01T21:59:20.958Z,26.60
2017-09-01T22:01:49.576Z,24.73
2017-09-01T22:04:17.948Z,26.03
2017-09-01T22:06:46.317Z,27.03
2017-09-01T22:09:14.701Z,24.63
2017-09-01T22:11:43.242Z,25.80
2017-09-01T22:14:11.613Z,26.47
2017-09-01T22:16:39.969Z,26.43
2017-09-01T22:19:08.725Z,28.77
2017-09-01T22:21:37.148Z,29.30
2017-09-01T22:24:06.288Z,29.03
2017-09-01T22:26:34.922Z,28.67
2017-09-01T22:29:03.286Z,28.00
2017-09-01T22:31:31.668Z,29.20
2017-09-01T22:34:00.051Z,28.57
2017-09-01T22:36:28.411Z,31.93
2017-09-01T22:38:56.595Z,28.53
2017-09-01T22:41:25.438Z,29.47
2017-09-01T22:43:53.874Z,31.00
2017-09-01T22:46:22.256Z,31.07
2017-09-01T22:48:50.626Z,27.20
2017-09-01T22:51:19.408Z,28.77
2017-09-01T22:53:48.132Z,28.90
2017-09-01T22:56:16.768Z,28.03
2017-09-01T22:58:45.296Z,29.80
2017-09-01T23:01:13.662Z,29.63
2017-09-01T23:03:42.025Z,31.33
2017-09-01T23:06:10.411Z,29.10
2017-09-01T23:08:39.066Z,28.07
2017-09-01T23:11:07.423Z,28.00
2017-09-01T23:13:35.790Z,27.63
2017-09-01T23:16:04.163Z,28.07
2017-09-01T23:18:32.579Z,27.67
2017-09-01T23:21:00.937Z,31.57
2017-09-01T23:23:29.527Z,29.83
2017-09-01T23:25:57.905Z,32.27
2017-09-01T23:28:26.482Z,40.70
2017-09-01T23:30:54.872Z,33.37
2017-09-01T23:33:23.234Z,40.70
2017-09-01T23:35:51.586Z,40.27
2017-09-01T23:38:19.953Z,38.80
2017-09-01T23:40:48.350Z,41.67
2017-09-01T23:43:16.708Z,36.47
2017-09-01T23:45:45.078Z,46.23
2017-09-01T23:48:13.463Z,39.20
2017-09-01T23:50:41.835Z,38.90
2017-09-01T23:53:10.233Z,38.03
2017-09-01T23:55:38.605Z,41.57
2017-09-01T23:58:06.978Z,42.80
